Time;durP1;ratioP1;P1;durP2;ratioP2;P2;SDS_P1;SDS_P2;PMS_P1;PMS_P2;Temp;Humidity;BMP_temperature;BMP_pressure;BME280_temperature;BME280_humidity;BME280_pressure;Samples;Min_cycle;Max_cycle;Signal;HPM_P1;HPM_P2
2021/03/21 00:01:47;;;;;;;6.85;3.60;;;4.10;55.30;;;;;;5098780;28;20438;-82
2021/03/21 00:04:15;;;;;;;7.73;3.90;;;4.10;55.00;;;;;;5098317;28;20179;-81
2021/03/21 00:06:41;;;;;;;9.38;3.80;;;4.10;54.70;;;;;;5097464;28;20461;-82
2021/03/21 00:09:07;;;;;;;8.13;3.72;;;4.10;55.50;;;;;;5098175;28;20225;-82
2021/03/21 00:11:34;;;;;;;8.23;4.55;;;4.10;55.00;;;;;;5097666;28;20216;-82
2021/03/21 00:14:00;;;;;;;9.27;3.90;;;4.20;55.40;;;;;;5099003;28;20658;-82
2021/03/21 00:16:26;;;;;;;10.38;3.70;;;4.20;54.70;;;;;;5097953;28;20167;-82
2021/03/21 00:18:52;;;;;;;7.13;3.80;;;4.20;55.40;;;;;;5097455;28;20172;-82
2021/03/21 00:21:18;;;;;;;6.10;3.47;;;4.20;55.30;;;;;;5095856;28;20469;-82
2021/03/21 00:23:45;;;;;;;7.00;3.53;;;4.10;54.90;;;;;;5095691;28;20418;-81
2021/03/21 00:26:12;;;;;;;8.85;3.75;;;4.10;54.70;;;;;;5096796;28;20294;-80
2021/03/21 00:28:40;;;;;;;6.80;3.30;;;4.20;54.60;;;;;;5096809;28;20263;-80
2021/03/21 00:31:08;;;;;;;9.05;3.70;;;4.20;54.30;;;;;;5095648;28;20196;-80
2021/03/21 00:33:35;;;;;;;12.38;4.22;;;4.20;54.50;;;;;;5097472;28;20262;-82
2021/03/21 00:36:03;;;;;;;9.68;4.28;;;4.20;53.70;;;;;;5095661;28;20178;-82
2021/03/21 00:38:35;;;;;;;9.15;3.38;;;4.20;53.80;;;;;;5095035;28;20225;-82
2021/03/21 00:41:02;;;;;;;6.43;3.10;;;4.20;52.60;;;;;;5094760;28;20195;-82
2021/03/21 00:43:28;;;;;;;6.43;2.78;;;4.20;53.20;;;;;;5094377;28;20313;-81
2021/03/21 00:45:55;;;;;;;6.65;3.58;;;4.20;52.40;;;;;;5095169;28;20690;-82
2021/03/21 00:48:30;;;;;;;5.65;2.80;;;4.20;52.90;;;;;;5094439;28;20179;-82
2021/03/21 00:50:56;;;;;;;5.95;3.15;;;4.20;51.30;;;;;;5094633;28;20688;-82
2021/03/21 00:53:23;;;;;;;5.25;3.00;;;4.20;51.90;;;;;;5094472;28;20163;-82
2021/03/21 00:55:50;;;;;;;4.22;2.50;;;4.20;51.70;;;;;;5093909;28;20172;-82
2021/03/21 00:58:17;;;;;;;16.27;4.10;;;4.20;51.70;;;;;;5093968;28;20719;-82
2021/03/21 01:00:45;;;;;;;10.77;4.00;;;4.30;50.70;;;;;;5094206;28;20656;-82
2021/03/21 01:03:12;;;;;;;9.38;3.42;;;4.30;51.60;;;;;;5094548;28;20211;-82
2021/03/21 01:05:45;;;;;;;9.70;3.95;;;4.30;51.60;;;;;;5093723;28;20196;-82
2021/03/21 01:08:25;;;;;;;7.97;3.20;;;4.30;52.60;;;;;;5093904;28;20160;-82
2021/03/21 01:11:02;;;;;;;7.97;3.33;;;4.40;54.10;;;;;;5093691;28;20187;-82
2021/03/21 01:13:28;;;;;;;4.93;2.95;;;4.40;54.50;;;;;;5093172;28;20167;-82
2021/03/21 01:15:55;;;;;;;5.70;3.20;;;4.50;55.10;;;;;;5093045;28;20244;-82
2021/03/21 01:18:24;;;;;;;4.93;3.50;;;4.50;55.40;;;;;;5092281;28;20168;-82
2021/03/21 01:20:51;;;;;;;5.35;3.55;;;4.50;55.80;;;;;;5092517;28;20216;-82
2021/03/21 01:23:16;;;;;;;8.85;3.42;;;4.50;55.70;;;;;;5092788;28;20178;-82
2021/03/21 01:25:43;;;;;;;5.80;3.23;;;4.60;55.30;;;;;;5092376;28;20215;-82
2021/03/21 01:28:35;;;;;;;6.60;3.38;;;4.60;55.70;;;;;;5076581;28;20906;-82
2021/03/21 01:31:03;;;;;;;4.63;3.13;;;4.60;56.20;;;;;;5093670;28;20192;-82
2021/03/21 01:33:31;;;;;;;9.27;4.10;;;4.60;56.30;;;;;;5096054;28;20167;-82
2021/03/21 01:35:57;;;;;;;5.32;2.85;;;4.60;53.20;;;;;;5095968;28;20531;-82
2021/03/21 01:38:24;;;;;;;10.07;5.22;;;4.60;53.60;;;;;;5095138;28;20188;-82
2021/03/21 01:40:56;;;;;;;8.07;3.50;;;4.60;54.90;;;;;;5094937;28;20196;-82
2021/03/21 01:43:34;;;;;;;5.22;3.35;;;4.50;56.40;;;;;;5095670;28;20321;-81
2021/03/21 01:46:01;;;;;;;10.48;3.40;;;4.60;56.40;;;;;;5096137;28;20195;-82
2021/03/21 01:48:54;;;;;;;5.85;3.15;;;4.60;55.50;;;;;;5095246;28;20266;-81
2021/03/21 01:51:34;;;;;;;8.80;3.55;;;4.60;57.00;;;;;;5095248;28;20555;-82
2021/03/21 01:54:07;;;;;;;5.35;3.25;;;4.60;57.40;;;;;;5095396;28;20195;-82
2021/03/21 01:56:35;;;;;;;4.18;3.08;;;4.60;57.10;;;;;;5095540;28;20179;-81
2021/03/21 01:59:07;;;;;;;5.72;3.53;;;4.60;56.30;;;;;;5095901;28;20168;-82
2021/03/21 02:01:33;;;;;;;10.05;3.35;;;4.50;56.80;;;;;;5095899;28;20195;-82
2021/03/21 02:03:59;;;;;;;5.72;3.35;;;4.50;56.00;;;;;;5096526;28;20176;-82
2021/03/21 02:06:28;;;;;;;6.67;3.90;;;4.40;56.30;;;;;;5095108;28;20215;-82
2021/03/21 02:09:08;;;;;;;4.63;3.35;;;4.40;57.00;;;;;;5096459;28;20451;-82
2021/03/21 02:11:42;;;;;;;8.10;4.32;;;4.40;55.50;;;;;;5094843;28;20274;-82
2021/03/21 02:14:22;;;;;;;10.35;3.42;;;4.40;56.60;;;;;;5094981;28;20628;-82
2021/03/21 02:16:59;;;;;;;7.50;3.55;;;4.40;55.00;;;;;;5095473;28;20160;-82
2021/03/21 02:20:03;;;;;;;8.57;4.10;;;4.40;55.80;;;;;;5094938;28;20171;-82
2021/03/21 02:22:34;;;;;;;9.00;3.97;;;4.40;55.30;;;;;;5095706;28;20321;-82
2021/03/21 02:25:37;;;;;;;11.75;4.40;;;4.40;56.60;;;;;;5096470;28;20245;-82
2021/03/21 02:28:25;;;;;;;5.45;3.58;;;4.40;55.50;;;;;;5096578;28;20184;-81
2021/03/21 02:30:59;;;;;;;6.75;3.17;;;4.40;54.30;;;;;;5099150;28;20199;-82
2021/03/21 02:33:29;;;;;;;7.10;3.15;;;4.50;55.10;;;;;;5099271;28;20203;-82
2021/03/21 02:36:09;;;;;;;14.55;3.90;;;4.40;54.90;;;;;;5100059;28;20197;-82
2021/03/21 02:39:01;;;;;;;8.32;3.95;;;4.50;54.90;;;;;;5099374;28;20163;-81
2021/03/21 02:41:36;;;;;;;7.10;3.60;;;4.60;55.30;;;;;;5098686;28;20227;-82
2021/03/21 02:44:11;;;;;;;5.50;2.78;;;4.60;56.80;;;;;;5098536;28;20155;-82
2021/03/21 02:46:50;;;;;;;6.35;3.20;;;4.60;56.60;;;;;;5098885;28;20195;-81
2021/03/21 02:49:41;;;;;;;8.07;3.45;;;4.60;57.00;;;;;;5098867;28;20201;-82
2021/03/21 02:52:36;;;;;;;11.00;3.92;;;4.60;56.40;;;;;;5097866;28;20188;-82
2021/03/21 02:55:13;;;;;;;5.68;4.07;;;4.70;56.80;;;;;;5096126;28;20175;-81
2021/03/21 02:58:01;;;;;;;6.25;3.00;;;4.70;58.50;;;;;;5097911;28;20193;-80
2021/03/21 03:00:35;;;;;;;7.70;3.95;;;4.70;57.90;;;;;;5097967;28;20179;-81
2021/03/21 03:03:04;;;;;;;5.45;3.25;;;4.60;58.00;;;;;;5098593;28;20170;-81
2021/03/21 03:05:44;;;;;;;11.20;3.50;;;4.60;56.00;;;;;;5097819;28;20543;-80
2021/03/21 03:08:16;;;;;;;9.52;3.40;;;4.60;57.00;;;;;;5098885;28;20231;-81
2021/03/21 03:10:50;;;;;;;4.53;2.47;;;4.60;56.30;;;;;;5098134;28;20184;-81
2021/03/21 03:13:22;;;;;;;8.82;3.45;;;4.70;56.40;;;;;;5098050;28;20167;-81
2021/03/21 03:15:55;;;;;;;6.82;2.85;;;4.70;57.10;;;;;;5097665;28;20195;-81
2021/03/21 03:18:39;;;;;;;8.32;3.35;;;4.60;55.70;;;;;;5097465;28;20168;-80
2021/03/21 03:21:09;;;;;;;4.05;2.78;;;4.60;57.60;;;;;;5097676;28;20240;-80
2021/03/21 03:23:46;;;;;;;6.53;3.75;;;4.60;56.60;;;;;;5097809;28;20183;-80
2021/03/21 03:27:09;;;;;;;5.32;2.80;;;4.60;57.20;;;;;;5097371;28;20220;-81
2021/03/21 03:29:47;;;;;;;8.02;3.50;;;4.60;57.70;;;;;;5079599;28;20183;-81
2021/03/21 03:32:14;;;;;;;6.88;3.45;;;4.60;57.20;;;;;;5078645;28;20656;-81
2021/03/21 03:34:44;;;;;;;5.03;3.47;;;4.60;57.90;;;;;;5089972;28;20179;-80
2021/03/21 03:37:11;;;;;;;4.13;3.00;;;4.60;57.60;;;;;;5096841;28;20555;-81
2021/03/21 03:39:39;;;;;;;6.82;2.70;;;4.60;58.30;;;;;;5096657;28;20732;-81
2021/03/21 03:42:05;;;;;;;7.53;3.70;;;4.60;58.80;;;;;;5095241;28;20192;-82
2021/03/21 03:45:06;;;;;;;4.97;3.27;;;4.60;57.90;;;;;;5094835;28;20178;-83
2021/03/21 03:48:02;;;;;;;8.55;2.60;;;4.60;57.10;;;;;;5083692;28;20484;-82
2021/03/21 03:50:39;;;;;;;7.55;3.03;;;4.60;56.20;;;;;;5095068;28;20191;-82
2021/03/21 03:53:22;;;;;;;6.90;3.25;;;4.50;56.40;;;;;;5095912;28;20267;-83
2021/03/21 03:56:04;;;;;;;10.82;3.50;;;4.50;57.20;;;;;;5095765;28;20240;-82
2021/03/21 03:58:52;;;;;;;14.45;3.70;;;4.50;56.80;;;;;;5095881;28;20212;-82
2021/03/21 04:01:35;;;;;;;8.10;3.50;;;4.60;58.40;;;;;;5095210;28;20195;-83
2021/03/21 04:04:36;;;;;;;7.15;2.95;;;4.60;57.60;;;;;;5096170;28;20156;-82
2021/03/21 04:07:26;;;;;;;7.28;3.75;;;4.50;57.00;;;;;;5095418;28;20194;-82
2021/03/21 04:09:57;;;;;;;10.40;3.17;;;4.60;57.50;;;;;;5094933;28;20157;-83
2021/03/21 04:12:42;;;;;;;9.15;3.22;;;4.60;58.90;;;;;;5094009;28;20203;-82
2021/03/21 04:15:21;;;;;;;6.90;3.17;;;4.60;58.40;;;;;;5094412;28;20600;-82
2021/03/21 04:17:52;;;;;;;7.20;3.10;;;4.60;58.70;;;;;;5094449;28;20243;-82
2021/03/21 04:20:30;;;;;;;5.18;2.92;;;4.50;58.10;;;;;;5094351;28;20163;-83
2021/03/21 04:23:19;;;;;;;7.32;3.10;;;4.50;59.10;;;;;;5094309;28;20590;-82
2021/03/21 04:25:50;;;;;;;4.85;3.08;;;4.50;59.40;;;;;;5094107;28;20294;-82
2021/03/21 04:28:33;;;;;;;5.43;2.95;;;4.50;60.10;;;;;;5094425;28;20175;-82
2021/03/21 04:31:03;;;;;;;4.43;2.88;;;4.50;60.00;;;;;;5093872;28;20195;-82
2021/03/21 04:33:38;;;;;;;7.20;3.47;;;4.50;59.80;;;;;;5093847;28;20678;-82
2021/03/21 04:36:09;;;;;;;7.20;3.65;;;4.40;60.80;;;;;;5094414;28;20685;-83
2021/03/21 04:39:06;;;;;;;8.63;3.60;;;4.40;60.90;;;;;;5094290;28;20175;-82
2021/03/21 04:41:44;;;;;;;12.60;3.40;;;4.40;61.20;;;;;;5090228;28;20200;-82
2021/03/21 04:44:17;;;;;;;6.18;3.03;;;4.40;60.00;;;;;;5093757;28;20168;-82
2021/03/21 04:47:07;;;;;;;10.07;3.30;;;4.40;60.80;;;;;;5094279;28;20237;-82
2021/03/21 04:49:32;;;;;;;5.97;3.38;;;4.40;60.00;;;;;;5094260;28;20690;-82
2021/03/21 04:52:17;;;;;;;3.70;2.57;;;4.40;59.80;;;;;;5093811;28;20187;-82
2021/03/21 04:54:47;;;;;;;5.50;3.30;;;4.40;59.80;;;;;;5094487;28;20492;-82
2021/03/21 04:57:45;;;;;;;9.45;3.30;;;4.40;59.80;;;;;;5093622;28;20168;-82
2021/03/21 05:00:27;;;;;;;8.00;3.22;;;4.30;59.70;;;;;;5094686;28;20264;-82
2021/03/21 05:03:11;;;;;;;5.60;3.20;;;4.40;60.20;;;;;;5094448;28;20628;-82
2021/03/21 05:05:42;;;;;;;9.15;4.30;;;4.40;59.60;;;;;;5093985;28;20164;-83
2021/03/21 05:08:17;;;;;;;14.77;3.40;;;4.40;59.30;;;;;;5094118;28;20164;-82
2021/03/21 05:10:51;;;;;;;5.88;3.22;;;4.40;59.40;;;;;;5094396;28;20254;-82
2021/03/21 05:13:40;;;;;;;9.68;3.65;;;4.30;59.80;;;;;;5094128;28;20243;-83
2021/03/21 05:16:22;;;;;;;5.65;3.38;;;4.30;59.60;;;;;;5094407;28;20164;-82
2021/03/21 05:18:55;;;;;;;10.40;4.13;;;4.30;60.20;;;;;;5094429;28;20212;-82
2021/03/21 05:21:24;;;;;;;7.35;3.33;;;4.30;59.30;;;;;;5094599;28;20279;-82
2021/03/21 05:24:11;;;;;;;7.88;3.50;;;4.20;60.00;;;;;;5092553;28;20676;-83
2021/03/21 05:26:50;;;;;;;10.63;4.22;;;4.30;60.80;;;;;;5091797;28;20191;-82
2021/03/21 05:29:53;;;;;;;11.10;4.18;;;4.20;60.80;;;;;;5091913;28;20199;-83
2021/03/21 05:32:21;;;;;;;7.05;3.70;;;4.30;60.60;;;;;;5092304;28;20648;-82
2021/03/21 05:34:49;;;;;;;8.75;3.53;;;4.30;60.50;;;;;;5087666;28;20268;-83
2021/03/21 05:37:47;;;;;;;7.30;4.03;;;4.30;60.90;;;;;;5073117;28;20188;-82
2021/03/21 05:40:32;;;;;;;6.03;3.20;;;4.30;61.60;;;;;;5091806;28;20163;-84
2021/03/21 05:43:41;;;;;;;10.23;4.00;;;4.40;61.70;;;;;;5091119;28;20156;-82
2021/03/21 05:46:14;;;;;;;11.63;3.85;;;4.40;61.40;;;;;;5077058;28;20665;-83
2021/03/21 05:49:05;;;;;;;12.95;5.25;;;4.40;62.60;;;;;;5076453;28;20169;-82
2021/03/21 05:52:05;;;;;;;6.75;3.10;;;4.40;62.00;;;;;;5079905;28;20192;-83
2021/03/21 05:55:06;;;;;;;8.07;4.05;;;4.40;62.70;;;;;;5072237;28;20165;-83
2021/03/21 05:58:00;;;;;;;5.72;3.20;;;4.40;62.00;;;;;;5075696;28;20175;-81
2021/03/21 06:00:47;;;;;;;6.18;2.85;;;4.40;61.00;;;;;;5075600;28;20605;-81
2021/03/21 06:03:44;;;;;;;12.68;3.20;;;4.40;61.70;;;;;;5075523;28;20237;-82
2021/03/21 06:06:15;;;;;;;9.00;3.33;;;4.50;61.90;;;;;;5078371;28;20200;-82
2021/03/21 06:08:56;;;;;;;12.48;3.95;;;4.50;61.70;;;;;;5080200;28;20243;-81
2021/03/21 06:11:40;;;;;;;10.70;3.58;;;4.50;60.20;;;;;;5079993;28;20227;-82
2021/03/21 06:14:29;;;;;;;5.80;3.75;;;4.40;60.30;;;;;;5077312;28;20218;-81
2021/03/21 06:17:28;;;;;;;11.35;3.17;;;4.40;61.60;;;;;;5079190;28;20466;-82
2021/03/21 06:19:57;;;;;;;7.35;3.92;;;4.40;62.60;;;;;;5079149;28;20164;-82
2021/03/21 06:23:02;;;;;;;14.00;3.38;;;4.40;62.60;;;;;;5079414;28;20723;-82
2021/03/21 06:25:46;;;;;;;7.45;4.20;;;4.40;61.90;;;;;;5080598;28;20596;-81
2021/03/21 06:28:24;;;;;;;8.80;3.90;;;4.40;61.90;;;;;;5079295;28;20173;-81
2021/03/21 06:31:11;;;;;;;9.55;3.92;;;4.40;62.40;;;;;;5078591;28;20193;-81
2021/03/21 06:33:58;;;;;;;8.55;3.53;;;4.40;62.80;;;;;;5078769;28;20175;-81
2021/03/21 06:37:00;;;;;;;6.22;3.40;;;4.40;61.90;;;;;;5078296;28;20176;-81
2021/03/21 06:39:38;;;;;;;5.53;3.42;;;4.40;62.00;;;;;;5075222;28;20190;-81
2021/03/21 06:42:03;;;;;;;8.38;3.58;;;4.50;61.30;;;;;;5077246;28;20196;-81
2021/03/21 06:44:53;;;;;;;6.53;3.90;;;4.50;62.30;;;;;;5077640;28;20176;-81
2021/03/21 06:47:33;;;;;;;10.45;3.70;;;4.60;61.90;;;;;;5077128;28;20184;-82
2021/03/21 06:50:24;;;;;;;8.90;4.10;;;4.70;62.30;;;;;;5077229;28;20171;-81
2021/03/21 06:52:52;;;;;;;7.05;3.75;;;4.70;62.10;;;;;;5076719;28;20188;-82
2021/03/21 06:55:46;;;;;;;10.13;4.05;;;4.80;61.60;;;;;;5077035;28;20169;-81
2021/03/21 06:58:30;;;;;;;8.18;4.10;;;4.80;61.20;;;;;;5076707;28;20604;-82
2021/03/21 07:01:22;;;;;;;9.73;4.38;;;4.90;61.60;;;;;;5077185;28;20188;-81
2021/03/21 07:04:12;;;;;;;8.13;5.03;;;4.80;61.30;;;;;;5076257;28;20161;-81
2021/03/21 07:07:35;;;;;;;6.38;4.03;;;4.90;61.30;;;;;;5076497;28;20188;-81
2021/03/21 07:10:32;;;;;;;8.13;3.55;;;4.90;60.80;;;;;;5076731;28;20172;-81
2021/03/21 07:13:25;;;;;;;7.88;3.55;;;4.90;61.70;;;;;;5075780;28;20184;-81
2021/03/21 07:15:51;;;;;;;10.85;5.65;;;5.00;61.40;;;;;;5076173;28;20263;-81
2021/03/21 07:18:42;;;;;;;13.60;4.00;;;5.00;60.60;;;;;;5077460;28;20230;-82
2021/03/21 07:21:29;;;;;;;7.75;3.20;;;4.90;60.10;;;;;;5077244;28;20427;-82
2021/03/21 07:23:57;;;;;;;7.43;3.95;;;4.90;59.70;;;;;;5077898;28;20157;-82
2021/03/21 07:26:48;;;;;;;9.88;4.68;;;4.90;60.10;;;;;;5077296;28;20600;-81
2021/03/21 07:29:35;;;;;;;7.80;3.85;;;4.90;61.00;;;;;;5077761;28;20172;-81
2021/03/21 07:32:17;;;;;;;8.07;3.83;;;4.90;60.80;;;;;;5077758;28;20561;-81
2021/03/21 07:35:19;;;;;;;5.63;3.63;;;5.00;61.60;;;;;;5077593;28;20196;-81
2021/03/21 07:37:48;;;;;;;12.60;4.22;;;5.00;61.40;;;;;;5078249;28;20172;-81
2021/03/21 07:40:50;;;;;;;8.70;4.15;;;5.00;60.60;;;;;;5077253;28;20274;-81
2021/03/21 07:43:46;;;;;;;10.93;4.70;;;5.00;61.90;;;;;;5075498;28;20182;-81
2021/03/21 07:46:37;;;;;;;10.52;4.65;;;5.10;61.40;;;;;;5076702;28;20678;-81
2021/03/21 07:49:21;;;;;;;7.40;4.15;;;5.10;61.40;;;;;;5077512;28;20180;-81
2021/03/21 07:52:25;;;;;;;13.07;4.70;;;5.00;62.40;;;;;;5077926;28;20257;-81
2021/03/21 07:55:10;;;;;;;10.60;4.63;;;5.10;62.60;;;;;;5076876;28;20188;-83
2021/03/21 07:57:36;;;;;;;12.15;4.38;;;5.10;62.60;;;;;;5076168;28;20508;-81
2021/03/21 08:00:07;;;;;;;15.00;6.13;;;5.10;64.50;;;;;;5077900;28;20234;-81
2021/03/21 08:02:33;;;;;;;13.85;4.70;;;5.10;63.80;;;;;;5078017;28;20197;-81
2021/03/21 08:05:12;;;;;;;8.73;4.77;;;5.10;63.10;;;;;;5075997;28;20264;-81
2021/03/21 08:07:41;;;;;;;9.00;3.95;;;5.20;63.30;;;;;;5076523;28;20196;-81
2021/03/21 08:10:28;;;;;;;10.07;4.18;;;5.20;62.30;;;;;;5075889;28;20190;-81
2021/03/21 08:13:11;;;;;;;8.55;4.50;;;5.20;62.80;;;;;;5075490;28;20161;-83
2021/03/21 08:15:38;;;;;;;10.60;4.55;;;5.30;61.60;;;;;;5076307;28;20161;-81
2021/03/21 08:18:08;;;;;;;7.68;4.20;;;5.30;62.70;;;;;;5076199;28;20169;-82
2021/03/21 08:20:38;;;;;;;7.05;4.03;;;5.30;62.60;;;;;;5075229;28;20157;-82
2021/03/21 08:23:10;;;;;;;8.45;3.72;;;5.30;63.80;;;;;;5074272;28;20200;-82
2021/03/21 08:25:36;;;;;;;10.52;4.43;;;5.40;62.40;;;;;;5074343;28;20207;-82
2021/03/21 08:28:03;;;;;;;13.13;4.32;;;5.40;62.00;;;;;;5073933;28;20165;-83
2021/03/21 08:30:52;;;;;;;7.35;3.83;;;5.50;62.70;;;;;;5075010;28;20226;-82
2021/03/21 08:33:38;;;;;;;9.65;4.40;;;5.60;61.30;;;;;;5075132;28;20236;-82
2021/03/21 08:36:21;;;;;;;10.55;4.43;;;5.70;62.40;;;;;;5077338;28;20616;-82
2021/03/21 08:39:16;;;;;;;11.55;4.28;;;5.80;61.60;;;;;;5078352;28;20680;-82
2021/03/21 08:41:55;;;;;;;9.38;4.43;;;5.90;60.90;;;;;;5078372;28;20212;-82
2021/03/21 08:44:40;;;;;;;10.43;4.03;;;6.00;60.00;;;;;;5097398;28;20206;-82
2021/03/21 08:47:16;;;;;;;6.38;4.15;;;6.10;60.10;;;;;;5100318;28;20272;-82
2021/03/21 08:49:47;;;;;;;10.13;4.38;;;6.20;60.60;;;;;;5099964;28;20177;-81
2021/03/21 08:52:44;;;;;;;8.95;4.15;;;6.20;60.80;;;;;;5097503;28;20188;-82
2021/03/21 08:55:27;;;;;;;7.43;3.97;;;6.30;59.20;;;;;;5098844;28;20172;-83
2021/03/21 08:57:54;;;;;;;5.70;3.30;;;6.30;58.70;;;;;;5100933;28;20240;-82
2021/03/21 09:00:21;;;;;;;9.15;3.70;;;6.30;57.60;;;;;;5099714;28;20206;-81
2021/03/21 09:02:47;;;;;;;9.50;4.40;;;6.40;58.40;;;;;;5097668;28;20191;-81
2021/03/21 09:05:15;;;;;;;10.67;4.87;;;6.40;58.90;;;;;;5101417;28;20198;-82
2021/03/21 09:07:48;;;;;;;5.88;3.05;;;6.50;58.80;;;;;;5099605;28;20448;-82
2021/03/21 09:10:30;;;;;;;9.60;4.07;;;6.60;58.40;;;;;;5095747;28;20191;-85
2021/03/21 09:13:02;;;;;;;8.90;3.85;;;6.60;57.90;;;;;;5085316;28;20812;-83
2021/03/21 09:15:30;;;;;;;9.75;4.18;;;6.70;57.40;;;;;;5092786;28;20168;-84
2021/03/21 09:18:11;;;;;;;9.70;4.30;;;6.70;57.20;;;;;;5093042;28;20260;-84
2021/03/21 09:20:39;;;;;;;8.48;4.47;;;6.70;55.80;;;;;;5093423;28;20174;-82
2021/03/21 09:23:27;;;;;;;8.68;3.50;;;6.70;56.70;;;;;;5092500;28;20175;-84
2021/03/21 09:25:56;;;;;;;12.93;4.70;;;6.80;57.10;;;;;;5092723;28;20211;-85
2021/03/21 09:28:24;;;;;;;8.27;4.82;;;6.80;57.00;;;;;;5073080;28;20168;-85
2021/03/21 09:30:53;;;;;;;8.23;3.30;;;6.80;53.70;;;;;;5082278;28;20752;-84
2021/03/21 09:33:45;;;;;;;6.60;4.00;;;6.60;54.50;;;;;;5096825;28;20167;-84
2021/03/21 09:36:50;;;;;;;9.70;4.63;;;6.60;55.30;;;;;;5091181;28;20196;-82
2021/03/21 09:39:25;;;;;;;6.68;3.63;;;6.60;55.40;;;;;;5077996;28;20263;-82
2021/03/21 09:41:53;;;;;;;7.55;4.13;;;6.60;54.50;;;;;;5077206;28;20207;-83
2021/03/21 09:44:24;;;;;;;13.32;4.18;;;6.50;54.90;;;;;;5077534;28;20168;-82
2021/03/21 09:47:08;;;;;;;7.03;3.78;;;6.60;55.90;;;;;;5079373;28;20630;-83
2021/03/21 09:50:05;;;;;;;8.20;3.85;;;6.70;55.50;;;;;;5099411;28;20167;-82
2021/03/21 09:52:55;;;;;;;10.45;5.32;;;6.70;55.30;;;;;;5098447;28;20341;-82
2021/03/21 09:55:59;;;;;;;9.88;4.50;;;6.60;55.30;;;;;;5097437;28;20160;-85
2021/03/21 09:58:57;;;;;;;7.78;4.32;;;6.60;56.60;;;;;;5097759;28;20194;-86
2021/03/21 10:01:37;;;;;;;9.18;4.50;;;6.70;57.10;;;;;;5096752;28;20275;-83
2021/03/21 10:04:17;;;;;;;8.43;4.30;;;6.80;57.10;;;;;;5094327;28;20167;-83
2021/03/21 10:06:45;;;;;;;9.05;4.25;;;6.90;55.90;;;;;;5093014;28;20200;-84
2021/03/21 10:09:16;;;;;;;10.90;4.78;;;6.90;56.40;;;;;;5093809;28;20271;-84
2021/03/21 10:11:45;;;;;;;14.35;5.88;;;7.00;56.20;;;;;;5096757;28;20184;-83
2021/03/21 10:14:27;;;;;;;8.25;4.35;;;7.00;56.70;;;;;;5096116;28;20172;-82
2021/03/21 10:16:57;;;;;;;10.18;4.57;;;7.10;56.70;;;;;;5092141;28;20188;-83
2021/03/21 10:19:48;;;;;;;8.35;5.10;;;7.00;56.70;;;;;;5091838;28;20206;-84
2021/03/21 10:22:17;;;;;;;12.02;4.80;;;7.10;59.20;;;;;;5083739;28;20192;-85
2021/03/21 10:24:44;;;;;;;6.85;4.30;;;7.00;58.10;;;;;;5094946;28;20191;-83
2021/03/21 10:27:34;;;;;;;10.80;5.30;;;7.00;58.40;;;;;;5095361;28;20259;-82
2021/03/21 10:30:18;;;;;;;8.95;4.32;;;7.00;58.70;;;;;;5098146;28;20589;-84
2021/03/21 10:32:58;;;;;;;10.27;5.40;;;7.10;59.20;;;;;;5096374;28;20570;-81
2021/03/21 10:35:24;;;;;;;11.70;5.00;;;7.10;59.40;;;;;;5095072;28;20171;-83
2021/03/21 10:37:51;;;;;;;7.27;3.50;;;7.00;63.50;;;;;;5095352;28;20602;-81
2021/03/21 10:40:26;;;;;;;11.55;4.40;;;7.00;63.90;;;;;;5096706;28;20187;-81
2021/03/21 10:43:13;;;;;;;12.15;5.95;;;7.10;63.80;;;;;;5095521;28;20282;-80
2021/03/21 10:45:38;;;;;;;12.55;5.30;;;7.10;63.40;;;;;;5091901;28;20244;-80
2021/03/21 10:48:07;;;;;;;10.50;4.90;;;7.10;63.70;;;;;;5095424;28;20176;-80
2021/03/21 10:50:33;;;;;;;8.65;4.45;;;7.10;63.90;;;;;;5097750;28;20430;-80
2021/03/21 10:53:21;;;;;;;14.60;5.20;;;7.10;63.30;;;;;;5099360;28;20596;-81
2021/03/21 10:56:19;;;;;;;11.38;4.75;;;7.10;64.80;;;;;;5098755;28;20175;-81
2021/03/21 10:59:10;;;;;;;12.32;5.65;;;7.00;66.60;;;;;;5098354;28;20160;-81
2021/03/21 11:01:38;;;;;;;9.68;4.93;;;7.00;67.70;;;;;;5098210;28;20201;-82
2021/03/21 11:04:33;;;;;;;8.07;4.60;;;7.00;68.70;;;;;;5098663;28;20168;-82
2021/03/21 11:07:12;;;;;;;11.88;5.55;;;7.00;70.10;;;;;;5097374;28;20195;-81
2021/03/21 11:09:57;;;;;;;12.93;5.65;;;6.90;71.20;;;;;;5098073;28;20213;-81
2021/03/21 11:12:32;;;;;;;10.68;6.00;;;6.90;72.10;;;;;;5097368;28;20286;-81
2021/03/21 11:15:15;;;;;;;12.13;5.95;;;7.00;72.60;;;;;;5097653;28;20573;-81
2021/03/21 11:17:42;;;;;;;18.65;6.90;;;7.00;71.60;;;;;;5095045;28;20191;-83
2021/03/21 11:20:35;;;;;;;12.63;5.75;;;7.00;71.70;;;;;;5098410;28;20212;-80
2021/03/21 11:23:08;;;;;;;17.73;7.20;;;7.00;72.00;;;;;;5099165;28;20179;-80
2021/03/21 11:25:39;;;;;;;11.65;5.93;;;7.00;72.00;;;;;;5099139;28;20195;-80
2021/03/21 11:28:06;;;;;;;13.85;6.45;;;7.20;71.90;;;;;;5097803;28;20180;-80
2021/03/21 11:30:33;;;;;;;17.15;6.93;;;7.20;71.30;;;;;;5098100;28;20167;-80
2021/03/21 11:33:26;;;;;;;11.25;6.43;;;7.30;70.80;;;;;;5096965;28;20241;-81
2021/03/21 11:36:10;;;;;;;15.70;6.57;;;7.30;70.50;;;;;;5097450;28;20164;-81
2021/03/21 11:38:39;;;;;;;12.68;6.10;;;7.50;70.60;;;;;;5098958;28;20836;-81
2021/03/21 11:41:34;;;;;;;16.25;7.32;;;7.60;69.20;;;;;;5097603;28;20705;-80
2021/03/21 11:44:32;;;;;;;17.48;8.05;;;7.70;68.40;;;;;;5097376;28;20168;-81
2021/03/21 11:47:20;;;;;;;18.38;7.53;;;7.90;68.40;;;;;;5098228;28;20216;-81
2021/03/21 11:49:46;;;;;;;16.80;6.85;;;8.00;67.60;;;;;;5096759;28;20179;-81
2021/03/21 11:52:13;;;;;;;15.35;7.15;;;7.90;65.80;;;;;;5093902;28;20541;-81
2021/03/21 11:54:42;;;;;;;15.60;7.28;;;7.90;65.10;;;;;;5094347;28;20168;-81
2021/03/21 11:57:16;;;;;;;15.68;8.27;;;7.70;64.60;;;;;;5094285;28;20183;-81
2021/03/21 12:00:24;;;;;;;21.40;7.35;;;7.70;65.20;;;;;;5093577;28;20176;-81
2021/03/21 12:02:59;;;;;;;11.82;6.68;;;7.60;64.50;;;;;;5090654;28;20210;-81
2021/03/21 12:05:29;;;;;;;11.63;5.80;;;7.50;63.90;;;;;;5093414;28;20181;-81
2021/03/21 12:08:12;;;;;;;16.30;5.38;;;7.50;64.50;;;;;;5093690;28;20231;-81
2021/03/21 12:10:40;;;;;;;18.77;7.25;;;7.50;64.90;;;;;;5093596;28;20163;-81
2021/03/21 12:13:30;;;;;;;15.85;6.55;;;7.60;64.40;;;;;;5093175;28;20636;-81
2021/03/21 12:15:56;;;;;;;12.93;5.90;;;7.70;64.80;;;;;;5094552;28;20217;-82
2021/03/21 12:18:28;;;;;;;8.93;4.90;;;7.60;64.60;;;;;;5094146;28;20519;-81
2021/03/21 12:21:11;;;;;;;11.85;6.43;;;7.50;65.10;;;;;;5094078;28;20188;-81
2021/03/21 12:23:47;;;;;;;12.10;6.05;;;7.60;65.90;;;;;;5093855;28;20172;-81
2021/03/21 12:26:15;;;;;;;14.30;5.53;;;7.60;66.60;;;;;;5093482;28;20245;-81
2021/03/21 12:29:00;;;;;;;9.32;4.93;;;7.60;66.70;;;;;;5093600;28;20225;-81
2021/03/21 12:31:39;;;;;;;11.88;4.78;;;7.70;67.60;;;;;;5102350;28;20184;-81
2021/03/21 12:34:44;;;;;;;7.07;4.60;;;7.80;67.60;;;;;;5103448;28;20172;-80
2021/03/21 12:37:13;;;;;;;12.95;5.10;;;7.80;69.80;;;;;;5105637;28;20190;-81
2021/03/21 12:39:47;;;;;;;15.95;6.38;;;7.70;71.60;;;;;;5106677;28;20168;-80
2021/03/21 12:42:30;;;;;;;10.13;4.55;;;7.60;73.00;;;;;;5103334;28;20198;-80
2021/03/21 12:45:25;;;;;;;9.27;4.88;;;7.60;73.40;;;;;;5101034;28;20692;-80
2021/03/21 12:47:54;;;;;;;11.15;5.68;;;7.80;73.50;;;;;;5101289;28;20298;-80
2021/03/21 12:50:46;;;;;;;14.50;6.35;;;7.80;72.80;;;;;;5100503;28;20616;-79
2021/03/21 12:53:30;;;;;;;10.48;5.00;;;7.80;72.60;;;;;;5096770;28;20200;-80
2021/03/21 12:56:03;;;;;;;9.65;4.70;;;7.80;73.30;;;;;;5096819;28;20171;-82
2021/03/21 12:58:29;;;;;;;11.57;5.18;;;7.80;74.20;;;;;;5092626;28;20632;-83
2021/03/21 13:00:56;;;;;;;11.83;6.10;;;7.90;74.50;;;;;;5092922;28;20191;-84
2021/03/21 13:03:31;;;;;;;18.23;6.25;;;7.90;74.60;;;;;;5092653;28;20414;-83
2021/03/21 13:05:59;;;;;;;7.90;4.50;;;7.90;75.20;;;;;;5092661;28;20171;-83
2021/03/21 13:08:27;;;;;;;9.27;4.40;;;8.10;75.90;;;;;;5092649;28;20258;-83
2021/03/21 13:10:54;;;;;;;10.05;5.05;;;8.20;75.80;;;;;;5092881;28;20184;-82
2021/03/21 13:13:20;;;;;;;8.00;3.90;;;8.30;76.00;;;;;;5092271;28;20172;-82
2021/03/21 13:15:46;;;;;;;9.18;3.95;;;8.40;75.60;;;;;;5093806;28;20640;-81
2021/03/21 13:18:18;;;;;;;6.70;4.05;;;8.50;75.60;;;;;;5093437;28;20560;-82
2021/03/21 13:20:45;;;;;;;11.68;4.38;;;8.60;75.30;;;;;;5092566;28;20199;-82
2021/03/21 13:23:11;;;;;;;9.35;4.20;;;8.70;75.20;;;;;;5092753;28;20168;-82
2021/03/21 13:25:37;;;;;;;6.77;3.97;;;8.70;75.30;;;;;;5093930;28;20195;-82
2021/03/21 13:28:05;;;;;;;10.50;4.27;;;8.70;75.50;;;;;;5093346;28;20962;-83
2021/03/21 13:30:35;;;;;;;9.38;4.85;;;8.60;75.80;;;;;;5093028;28;20402;-82
2021/03/21 13:33:03;;;;;;;9.05;4.20;;;8.50;75.80;;;;;;5092621;28;20175;-83
2021/03/21 13:35:31;;;;;;;8.85;4.72;;;8.50;76.00;;;;;;5093991;28;20164;-82
2021/03/21 13:37:57;;;;;;;8.70;4.38;;;8.50;76.00;;;;;;5093310;28;20178;-82
2021/03/21 13:40:31;;;;;;;7.95;4.22;;;8.50;76.60;;;;;;5093069;28;20179;-83
2021/03/21 13:42:59;;;;;;;11.48;5.40;;;8.60;76.20;;;;;;5093641;28;20170;-83
2021/03/21 13:45:28;;;;;;;11.63;5.22;;;8.50;75.80;;;;;;5092989;28;20286;-82
2021/03/21 13:47:54;;;;;;;9.55;4.80;;;8.50;76.20;;;;;;5092468;28;20192;-83
2021/03/21 13:50:21;;;;;;;11.70;5.23;;;8.40;76.40;;;;;;5093202;28;20623;-83